sensor_id;sensor_type;location;lat;lon;timestamp;temperature;humidity
23089;DHT22;11713;48.506;8.966;2023-04-01T00:00:54;8.50;99.90
23089;DHT22;11713;48.506;8.966;2023-04-01T00:03:22;8.50;99.90
23089;DHT22;11713;48.506;8.966;2023-04-01T00:05:48;8.50;99.90
23089;DHT22;11713;48.506;8.966;2023-04-01T00:08:15;8.50;99.90
23089;DHT22;11713;48.506;8.966;2023-04-01T00:10:41;8.50;99.90
23089;DHT22;11713;48.506;8.966;2023-04-01T00:13:07;8.40;99.90
23089;DHT22;11713;48.506;8.966;2023-04-01T00:15:34;8.50;99.90
23089;DHT22;11713;48.506;8.966;2023-04-01T00:18:00;8.50;99.90
23089;DHT22;11713;48.506;8.966;2023-04-01T00:20:26;8.50;99.90
23089;DHT22;11713;48.506;8.966;2023-04-01T00:22:52;8.50;99.90
23089;DHT22;11713;48.506;8.966;2023-04-01T00:25:18;8.50;99.90
23089;DHT22;11713;48.506;8.966;2023-04-01T00:27:44;8.50;99.90
23089;DHT22;11713;48.506;8.966;2023-04-01T00:30:11;8.50;99.90
23089;DHT22;11713;48.506;8.966;2023-04-01T00:32:37;8.50;99.90
23089;DHT22;11713;48.506;8.966;2023-04-01T00:35:03;8.50;99.90
23089;DHT22;11713;48.506;8.966;2023-04-01T00:37:30;8.50;99.90
23089;DHT22;11713;48.506;8.966;2023-04-01T00:39:56;8.50;99.90
23089;DHT22;11713;48.506;8.966;2023-04-01T00:42:22;8.50;99.90
23089;DHT22;11713;48.506;8.966;2023-04-01T00:44:54;8.50;99.90
23089;DHT22;11713;48.506;8.966;2023-04-01T00:47:21;8.50;99.90
23089;DHT22;11713;48.506;8.966;2023-04-01T00:49:50;8.50;99.90
23089;DHT22;11713;48.506;8.966;2023-04-01T00:52:23;8.40;99.90
23089;DHT22;11713;48.506;8.966;2023-04-01T00:54:54;8.40;99.90
23089;DHT22;11713;48.506;8.966;2023-04-01T00:57:31;8.40;99.90
23089;DHT22;11713;48.506;8.966;2023-04-01T00:59:58;8.40;99.90
23089;DHT22;11713;48.506;8.966;2023-04-01T01:02:25;8.40;99.90
23089;DHT22;11713;48.506;8.966;2023-04-01T01:04:51;8.40;99.90
23089;DHT22;11713;48.506;8.966;2023-04-01T01:07:36;8.50;99.90
23089;DHT22;11713;48.506;8.966;2023-04-01T01:10:07;8.40;99.90
23089;DHT22;11713;48.506;8.966;2023-04-01T01:17:56;8.50;99.90
23089;DHT22;11713;48.506;8.966;2023-04-01T01:26:40;8.50;99.90
23089;DHT22;11713;48.506;8.966;2023-04-01T01:35:16;8.50;99.90
23089;DHT22;11713;48.506;8.966;2023-04-01T01:37:46;8.50;99.90
23089;DHT22;11713;48.506;8.966;2023-04-01T01:40:14;8.40;99.90
23089;DHT22;11713;48.506;8.966;2023-04-01T01:42:49;8.40;99.90
23089;DHT22;11713;48.506;8.966;2023-04-01T01:45:18;8.40;99.90
23089;DHT22;11713;48.506;8.966;2023-04-01T01:47:46;8.40;99.90
23089;DHT22;11713;48.506;8.966;2023-04-01T01:50:13;8.40;99.90
23089;DHT22;11713;48.506;8.966;2023-04-01T01:52:41;8.30;99.90
23089;DHT22;11713;48.506;8.966;2023-04-01T01:55:35;8.30;99.90
23089;DHT22;11713;48.506;8.966;2023-04-01T01:58:11;8.40;99.90
23089;DHT22;11713;48.506;8.966;2023-04-01T02:00:41;8.30;99.90
23089;DHT22;11713;48.506;8.966;2023-04-01T02:03:10;8.30;99.90
23089;DHT22;11713;48.506;8.966;2023-04-01T02:05:37;8.30;99.90
23089;DHT22;11713;48.506;8.966;2023-04-01T02:08:12;8.30;99.90
23089;DHT22;11713;48.506;8.966;2023-04-01T02:10:42;8.30;99.90
23089;DHT22;11713;48.506;8.966;2023-04-01T02:13:18;8.30;99.90
23089;DHT22;11713;48.506;8.966;2023-04-01T02:15:48;8.20;99.90
23089;DHT22;11713;48.506;8.966;2023-04-01T02:18:17;8.20;99.90
23089;DHT22;11713;48.506;8.966;2023-04-01T02:20:44;8.20;99.90
23089;DHT22;11713;48.506;8.966;2023-04-01T02:23:12;8.20;99.90
23089;DHT22;11713;48.506;8.966;2023-04-01T02:25:39;8.20;99.90
23089;DHT22;11713;48.506;8.966;2023-04-01T02:28:08;8.20;99.90
23089;DHT22;11713;48.506;8.966;2023-04-01T02:30:36;8.20;99.90
23089;DHT22;11713;48.506;8.966;2023-04-01T02:33:04;8.30;99.90
23089;DHT22;11713;48.506;8.966;2023-04-01T02:35:33;8.30;99.90
23089;DHT22;11713;48.506;8.966;2023-04-01T02:38:01;8.20;99.90
23089;DHT22;11713;48.506;8.966;2023-04-01T02:40:26;8.20;99.90
23089;DHT22;11713;48.506;8.966;2023-04-01T02:42:52;8.20;99.90
23089;DHT22;11713;48.506;8.966;2023-04-01T02:45:18;8.20;99.90
23089;DHT22;11713;48.506;8.966;2023-04-01T02:47:44;8.20;99.90
23089;DHT22;11713;48.506;8.966;2023-04-01T02:50:11;8.10;99.90
23089;DHT22;11713;48.506;8.966;2023-04-01T02:52:37;8.10;99.90
23089;DHT22;11713;48.506;8.966;2023-04-01T02:55:04;8.10;99.90
23089;DHT22;11713;48.506;8.966;2023-04-01T02:57:31;8.00;99.90
23089;DHT22;11713;48.506;8.966;2023-04-01T02:59:56;8.00;99.90
23089;DHT22;11713;48.506;8.966;2023-04-01T03:02:22;7.90;99.90
23089;DHT22;11713;48.506;8.966;2023-04-01T03:04:48;7.90;99.90
23089;DHT22;11713;48.506;8.966;2023-04-01T03:07:14;7.90;99.90
23089;DHT22;11713;48.506;8.966;2023-04-01T03:09:40;7.80;99.90
23089;DHT22;11713;48.506;8.966;2023-04-01T03:12:06;7.80;99.90
23089;DHT22;11713;48.506;8.966;2023-04-01T03:14:43;7.80;99.90
23089;DHT22;11713;48.506;8.966;2023-04-01T03:17:09;7.70;99.90
23089;DHT22;11713;48.506;8.966;2023-04-01T03:19:34;7.70;99.90
23089;DHT22;11713;48.506;8.966;2023-04-01T03:22:05;7.60;99.90
23089;DHT22;11713;48.506;8.966;2023-04-01T03:24:31;7.60;99.90
23089;DHT22;11713;48.506;8.966;2023-04-01T03:26:56;7.60;99.90
23089;DHT22;11713;48.506;8.966;2023-04-01T03:29:22;7.50;99.90
23089;DHT22;11713;48.506;8.966;2023-04-01T03:31:48;7.50;99.90
23089;DHT22;11713;48.506;8.966;2023-04-01T03:34:14;7.50;99.90
23089;DHT22;11713;48.506;8.966;2023-04-01T03:36:41;7.50;99.90
23089;DHT22;11713;48.506;8.966;2023-04-01T03:39:06;7.50;99.90
23089;DHT22;11713;48.506;8.966;2023-04-01T03:41:39;7.50;99.90
23089;DHT22;11713;48.506;8.966;2023-04-01T03:44:06;7.50;99.90
23089;DHT22;11713;48.506;8.966;2023-04-01T03:46:32;7.40;99.90
23089;DHT22;11713;48.506;8.966;2023-04-01T03:48:58;7.50;99.90
23089;DHT22;11713;48.506;8.966;2023-04-01T03:51:23;7.50;99.90
23089;DHT22;11713;48.506;8.966;2023-04-01T03:53:49;7.50;99.90
23089;DHT22;11713;48.506;8.966;2023-04-01T03:56:16;7.50;99.90
23089;DHT22;11713;48.506;8.966;2023-04-01T03:58:42;7.50;99.90
23089;DHT22;11713;48.506;8.966;2023-04-01T04:01:20;7.50;99.90
23089;DHT22;11713;48.506;8.966;2023-04-01T04:03:49;7.50;99.90
23089;DHT22;11713;48.506;8.966;2023-04-01T04:06:16;7.40;99.90
23089;DHT22;11713;48.506;8.966;2023-04-01T04:08:43;7.40;99.90
23089;DHT22;11713;48.506;8.966;2023-04-01T04:11:10;7.40;99.90
23089;DHT22;11713;48.506;8.966;2023-04-01T04:13:39;7.40;99.90
23089;DHT22;11713;48.506;8.966;2023-04-01T04:16:06;7.30;99.90
23089;DHT22;11713;48.506;8.966;2023-04-01T04:18:33;7.30;99.90
23089;DHT22;11713;48.506;8.966;2023-04-01T04:21:00;7.30;99.90
23089;DHT22;11713;48.506;8.966;2023-04-01T04:23:26;7.30;99.90
23089;DHT22;11713;48.506;8.966;2023-04-01T04:26:02;7.20;99.90
23089;DHT22;11713;48.506;8.966;2023-04-01T04:28:31;7.20;99.90
23089;DHT22;11713;48.506;8.966;2023-04-01T04:30:59;7.20;99.90
23089;DHT22;11713;48.506;8.966;2023-04-01T04:33:27;7.20;99.90
23089;DHT22;11713;48.506;8.966;2023-04-01T04:35:58;7.20;99.90
23089;DHT22;11713;48.506;8.966;2023-04-01T04:38:25;7.30;99.90
23089;DHT22;11713;48.506;8.966;2023-04-01T04:40:51;7.30;99.90
23089;DHT22;11713;48.506;8.966;2023-04-01T04:43:18;7.30;99.90
23089;DHT22;11713;48.506;8.966;2023-04-01T04:45:44;7.30;99.90
23089;DHT22;11713;48.506;8.966;2023-04-01T04:48:12;7.30;99.90
23089;DHT22;11713;48.506;8.966;2023-04-01T04:50:50;7.30;99.90
23089;DHT22;11713;48.506;8.966;2023-04-01T04:53:19;7.40;99.90
23089;DHT22;11713;48.506;8.966;2023-04-01T04:55:47;7.30;99.90
23089;DHT22;11713;48.506;8.966;2023-04-01T04:58:42;7.40;99.90
23089;DHT22;11713;48.506;8.966;2023-04-01T05:01:15;7.40;99.90
23089;DHT22;11713;48.506;8.966;2023-04-01T05:03:41;7.50;99.90
23089;DHT22;11713;48.506;8.966;2023-04-01T05:06:09;7.50;99.90
23089;DHT22;11713;48.506;8.966;2023-04-01T05:08:35;7.60;99.90
23089;DHT22;11713;48.506;8.966;2023-04-01T05:11:07;7.60;99.90
23089;DHT22;11713;48.506;8.966;2023-04-01T05:13:36;7.60;99.90
23089;DHT22;11713;48.506;8.966;2023-04-01T05:16:02;7.60;99.90
23089;DHT22;11713;48.506;8.966;2023-04-01T05:18:28;7.70;99.90
23089;DHT22;11713;48.506;8.966;2023-04-01T05:20:54;7.70;99.90
23089;DHT22;11713;48.506;8.966;2023-04-01T05:23:22;7.80;99.90
23089;DHT22;11713;48.506;8.966;2023-04-01T05:25:48;7.80;99.90
23089;DHT22;11713;48.506;8.966;2023-04-01T05:28:16;7.80;99.90
23089;DHT22;11713;48.506;8.966;2023-04-01T05:30:44;7.80;99.90
23089;DHT22;11713;48.506;8.966;2023-04-01T05:33:22;7.90;99.90
23089;DHT22;11713;48.506;8.966;2023-04-01T05:35:48;7.90;99.90
23089;DHT22;11713;48.506;8.966;2023-04-01T05:38:14;7.90;99.90
23089;DHT22;11713;48.506;8.966;2023-04-01T05:40:40;7.90;99.90
23089;DHT22;11713;48.506;8.966;2023-04-01T05:43:06;7.90;99.90
23089;DHT22;11713;48.506;8.966;2023-04-01T05:45:32;7.90;99.90
23089;DHT22;11713;48.506;8.966;2023-04-01T05:48:18;7.90;99.90
23089;DHT22;11713;48.506;8.966;2023-04-01T05:50:44;7.90;99.90
23089;DHT22;11713;48.506;8.966;2023-04-01T05:53:10;7.80;99.90
23089;DHT22;11713;48.506;8.966;2023-04-01T05:55:38;7.90;99.90
23089;DHT22;11713;48.506;8.966;2023-04-01T05:58:04;7.80;99.90
23089;DHT22;11713;48.506;8.966;2023-04-01T06:00:31;7.90;99.90
23089;DHT22;11713;48.506;8.966;2023-04-01T06:02:59;7.90;99.90
23089;DHT22;11713;48.506;8.966;2023-04-01T06:05:28;7.90;99.90
23089;DHT22;11713;48.506;8.966;2023-04-01T06:08:08;7.90;99.90
23089;DHT22;11713;48.506;8.966;2023-04-01T06:16:55;8.00;99.90
23089;DHT22;11713;48.506;8.966;2023-04-01T06:19:40;8.00;99.90
23089;DHT22;11713;48.506;8.966;2023-04-01T06:27:59;8.10;99.90
23089;DHT22;11713;48.506;8.966;2023-04-01T06:33:28;8.10;99.90
23089;DHT22;11713;48.506;8.966;2023-04-01T06:39:00;8.20;99.90
23089;DHT22;11713;48.506;8.966;2023-04-01T06:47:34;8.40;99.90
23089;DHT22;11713;48.506;8.966;2023-04-01T07:57:58;9.00;99.90
23089;DHT22;11713;48.506;8.966;2023-04-01T08:00:39;9.10;99.90
23089;DHT22;11713;48.506;8.966;2023-04-01T08:03:43;9.10;99.90
23089;DHT22;11713;48.506;8.966;2023-04-01T08:06:32;9.10;99.90
23089;DHT22;11713;48.506;8.966;2023-04-01T08:12:49;9.20;99.90
23089;DHT22;11713;48.506;8.966;2023-04-01T08:21:02;9.20;99.90
23089;DHT22;11713;48.506;8.966;2023-04-01T08:23:36;9.30;99.90
23089;DHT22;11713;48.506;8.966;2023-04-01T08:29:15;9.30;99.90
23089;DHT22;11713;48.506;8.966;2023-04-01T08:31:56;9.30;99.90
23089;DHT22;11713;48.506;8.966;2023-04-01T08:34:42;9.30;99.90
23089;DHT22;11713;48.506;8.966;2023-04-01T08:37:21;9.30;99.90
23089;DHT22;11713;48.506;8.966;2023-04-01T08:43:12;9.20;99.90
23089;DHT22;11713;48.506;8.966;2023-04-01T08:46:11;9.30;99.90
23089;DHT22;11713;48.506;8.966;2023-04-01T08:49:10;9.30;99.90
23089;DHT22;11713;48.506;8.966;2023-04-01T08:52:01;9.30;99.90
23089;DHT22;11713;48.506;8.966;2023-04-01T08:54:46;9.30;99.90
23089;DHT22;11713;48.506;8.966;2023-04-01T08:57:37;9.40;99.90
23089;DHT22;11713;48.506;8.966;2023-04-01T09:00:52;9.40;99.90
23089;DHT22;11713;48.506;8.966;2023-04-01T09:09:57;9.30;99.90
23089;DHT22;11713;48.506;8.966;2023-04-01T09:15:27;9.40;99.90
23089;DHT22;11713;48.506;8.966;2023-04-01T09:18:09;9.40;99.90
23089;DHT22;11713;48.506;8.966;2023-04-01T09:26:38;9.70;99.90
23089;DHT22;11713;48.506;8.966;2023-04-01T09:32:08;9.70;99.90
23089;DHT22;11713;48.506;8.966;2023-04-01T09:40:33;9.70;99.90
23089;DHT22;11713;48.506;8.966;2023-04-01T09:46:20;9.80;99.90
23089;DHT22;11713;48.506;8.966;2023-04-01T09:51:56;9.90;99.90
23089;DHT22;11713;48.506;8.966;2023-04-01T10:26:23;9.40;99.90
23089;DHT22;11713;48.506;8.966;2023-04-01T10:35:15;9.60;99.90
23089;DHT22;11713;48.506;8.966;2023-04-01T10:38:01;9.60;99.90
23089;DHT22;11713;48.506;8.966;2023-04-01T10:44:18;9.60;99.90
23089;DHT22;11713;48.506;8.966;2023-04-01T11:08:19;10.10;99.90
23089;DHT22;11713;48.506;8.966;2023-04-01T11:16:22;10.20;99.90
23089;DHT22;11713;48.506;8.966;2023-04-01T11:38:57;10.30;99.90
23089;DHT22;11713;48.506;8.966;2023-04-01T11:42:09;10.30;99.90
23089;DHT22;11713;48.506;8.966;2023-04-01T11:55:51;10.40;99.90
23089;DHT22;11713;48.506;8.966;2023-04-01T11:58:40;10.30;99.90
23089;DHT22;11713;48.506;8.966;2023-04-01T12:01:29;10.40;99.90
23089;DHT22;11713;48.506;8.966;2023-04-01T12:04:20;10.40;99.90
23089;DHT22;11713;48.506;8.966;2023-04-01T12:34:42;10.20;99.90
23089;DHT22;11713;48.506;8.966;2023-04-01T12:41:00;10.30;99.90
23089;DHT22;11713;48.506;8.966;2023-04-01T12:46:32;10.40;99.90
23089;DHT22;11713;48.506;8.966;2023-04-01T13:00:50;10.40;99.90
23089;DHT22;11713;48.506;8.966;2023-04-01T13:19:49;11.30;99.90
23089;DHT22;11713;48.506;8.966;2023-04-01T13:25:24;11.10;99.90
23089;DHT22;11713;48.506;8.966;2023-04-01T13:28:01;11.10;99.90
23089;DHT22;11713;48.506;8.966;2023-04-01T13:33:50;11.00;99.90
23089;DHT22;11713;48.506;8.966;2023-04-01T13:36:28;10.90;99.90
23089;DHT22;11713;48.506;8.966;2023-04-01T13:44:18;10.90;99.90
23089;DHT22;11713;48.506;8.966;2023-04-01T13:47:04;10.90;99.90
23089;DHT22;11713;48.506;8.966;2023-04-01T13:52:14;10.90;99.90
23089;DHT22;11713;48.506;8.966;2023-04-01T14:02:51;10.90;99.90
23089;DHT22;11713;48.506;8.966;2023-04-01T14:05:50;11.00;99.90
23089;DHT22;11713;48.506;8.966;2023-04-01T14:17:03;10.70;99.90
23089;DHT22;11713;48.506;8.966;2023-04-01T14:20:00;10.70;99.90
23089;DHT22;11713;48.506;8.966;2023-04-01T14:22:47;10.70;99.90
23089;DHT22;11713;48.506;8.966;2023-04-01T14:26:20;10.80;99.90
23089;DHT22;11713;48.506;8.966;2023-04-01T14:34:21;10.90;99.90
23089;DHT22;11713;48.506;8.966;2023-04-01T14:37:01;10.90;99.90
23089;DHT22;11713;48.506;8.966;2023-04-01T14:48:25;10.70;99.90
23089;DHT22;11713;48.506;8.966;2023-04-01T14:51:03;10.80;99.90
23089;DHT22;11713;48.506;8.966;2023-04-01T14:53:35;10.70;99.90
23089;DHT22;11713;48.506;8.966;2023-04-01T14:56:04;10.70;99.90
23089;DHT22;11713;48.506;8.966;2023-04-01T14:58:49;10.70;99.90
23089;DHT22;11713;48.506;8.966;2023-04-01T15:04:37;10.80;99.90
23089;DHT22;11713;48.506;8.966;2023-04-01T15:07:21;10.70;99.90
23089;DHT22;11713;48.506;8.966;2023-04-01T15:13:09;10.70;99.90
23089;DHT22;11713;48.506;8.966;2023-04-01T15:15:46;10.70;99.90
23089;DHT22;11713;48.506;8.966;2023-04-01T15:18:46;10.60;99.90
23089;DHT22;11713;48.506;8.966;2023-04-01T15:24:22;10.60;99.90
23089;DHT22;11713;48.506;8.966;2023-04-01T15:27:15;10.60;99.90
23089;DHT22;11713;48.506;8.966;2023-04-01T15:41:34;10.60;99.90
23089;DHT22;11713;48.506;8.966;2023-04-01T15:44:01;10.60;99.90
23089;DHT22;11713;48.506;8.966;2023-04-01T15:49:47;10.60;99.90
23089;DHT22;11713;48.506;8.966;2023-04-01T15:55:09;10.70;99.90
23089;DHT22;11713;48.506;8.966;2023-04-01T15:58:19;10.70;99.90
23089;DHT22;11713;48.506;8.966;2023-04-01T16:06:46;10.60;99.90
23089;DHT22;11713;48.506;8.966;2023-04-01T16:12:07;10.60;99.90
23089;DHT22;11713;48.506;8.966;2023-04-01T16:25:54;10.60;99.90
23089;DHT22;11713;48.506;8.966;2023-04-01T16:28:49;10.60;99.90
23089;DHT22;11713;48.506;8.966;2023-04-01T16:34:39;10.60;99.90
23089;DHT22;11713;48.506;8.966;2023-04-01T16:37:39;10.60;99.90
23089;DHT22;11713;48.506;8.966;2023-04-01T16:40:25;10.60;99.90
23089;DHT22;11713;48.506;8.966;2023-04-01T16:43:26;10.60;99.90
23089;DHT22;11713;48.506;8.966;2023-04-01T16:46:54;10.60;99.90
23089;DHT22;11713;48.506;8.966;2023-04-01T16:49:00;10.60;99.90
23089;DHT22;11713;48.506;8.966;2023-04-01T16:51:57;10.60;99.90
23089;DHT22;11713;48.506;8.966;2023-04-01T16:59:29;10.50;99.90
23089;DHT22;11713;48.506;8.966;2023-04-01T17:05:14;10.40;99.90
23089;DHT22;11713;48.506;8.966;2023-04-01T17:07:53;10.40;99.90
23089;DHT22;11713;48.506;8.966;2023-04-01T17:10:59;10.40;99.90
23089;DHT22;11713;48.506;8.966;2023-04-01T17:13:35;10.40;99.90
23089;DHT22;11713;48.506;8.966;2023-04-01T17:24:58;10.40;99.90
23089;DHT22;11713;48.506;8.966;2023-04-01T17:35:27;10.30;99.90
23089;DHT22;11713;48.506;8.966;2023-04-01T17:38:06;10.30;99.90
23089;DHT22;11713;48.506;8.966;2023-04-01T17:53:51;10.20;99.90
23089;DHT22;11713;48.506;8.966;2023-04-01T18:02:01;10.20;99.90
23089;DHT22;11713;48.506;8.966;2023-04-01T18:04:36;10.10;99.90
23089;DHT22;11713;48.506;8.966;2023-04-01T18:07:42;10.10;99.90
23089;DHT22;11713;48.506;8.966;2023-04-01T18:18:35;10.10;99.90
23089;DHT22;11713;48.506;8.966;2023-04-01T18:24:02;10.10;99.90
23089;DHT22;11713;48.506;8.966;2023-04-01T18:26:34;10.10;99.90
23089;DHT22;11713;48.506;8.966;2023-04-01T18:32:26;10.10;99.90
23089;DHT22;11713;48.506;8.966;2023-04-01T18:46:24;9.70;99.90
23089;DHT22;11713;48.506;8.966;2023-04-01T18:51:46;9.50;99.90
23089;DHT22;11713;48.506;8.966;2023-04-01T18:54:30;9.40;99.90
23089;DHT22;11713;48.506;8.966;2023-04-01T18:57:07;9.40;99.90
23089;DHT22;11713;48.506;8.966;2023-04-01T19:02:36;9.20;99.90
23089;DHT22;11713;48.506;8.966;2023-04-01T19:13:14;9.20;99.90
23089;DHT22;11713;48.506;8.966;2023-04-01T19:26:49;8.90;99.90
23089;DHT22;11713;48.506;8.966;2023-04-01T19:38:01;8.70;99.90
23089;DHT22;11713;48.506;8.966;2023-04-01T19:57:25;8.40;99.90
23089;DHT22;11713;48.506;8.966;2023-04-01T20:00:05;8.40;99.90
23089;DHT22;11713;48.506;8.966;2023-04-01T20:05:22;8.30;99.90
23089;DHT22;11713;48.506;8.966;2023-04-01T20:07:53;8.20;99.90
23089;DHT22;11713;48.506;8.966;2023-04-01T20:10:35;8.20;99.90
23089;DHT22;11713;48.506;8.966;2023-04-01T20:15:45;8.00;99.90
23089;DHT22;11713;48.506;8.966;2023-04-01T20:18:16;7.90;99.90
23089;DHT22;11713;48.506;8.966;2023-04-01T20:21:15;7.80;99.90
23089;DHT22;11713;48.506;8.966;2023-04-01T20:23:52;7.70;99.90
23089;DHT22;11713;48.506;8.966;2023-04-01T20:26:25;7.60;99.90
23089;DHT22;11713;48.506;8.966;2023-04-01T20:29:07;7.60;99.90
23089;DHT22;11713;48.506;8.966;2023-04-01T20:31:43;7.60;99.90
23089;DHT22;11713;48.506;8.966;2023-04-01T20:37:37;7.60;99.90
23089;DHT22;11713;48.506;8.966;2023-04-01T20:43:30;7.60;99.90
23089;DHT22;11713;48.506;8.966;2023-04-01T20:46:39;7.50;99.90
23089;DHT22;11713;48.506;8.966;2023-04-01T20:57:31;7.50;99.90
23089;DHT22;11713;48.506;8.966;2023-04-01T21:06:12;7.60;99.90
23089;DHT22;11713;48.506;8.966;2023-04-01T21:08:59;7.70;99.90
23089;DHT22;11713;48.506;8.966;2023-04-01T21:12:02;7.70;99.90
23089;DHT22;11713;48.506;8.966;2023-04-01T21:28:45;8.00;99.90
23089;DHT22;11713;48.506;8.966;2023-04-01T21:42:24;8.10;99.90
23089;DHT22;11713;48.506;8.966;2023-04-01T21:50:39;8.10;99.90
23089;DHT22;11713;48.506;8.966;2023-04-01T22:07:17;8.00;99.90
23089;DHT22;11713;48.506;8.966;2023-04-01T22:18:09;8.00;99.90
23089;DHT22;11713;48.506;8.966;2023-04-01T22:20:54;8.10;99.90
23089;DHT22;11713;48.506;8.966;2023-04-01T22:23:39;8.00;99.90
23089;DHT22;11713;48.506;8.966;2023-04-01T22:34:43;7.90;99.90
23089;DHT22;11713;48.506;8.966;2023-04-01T22:37:33;7.90;99.90
23089;DHT22;11713;48.506;8.966;2023-04-01T22:42:44;7.80;99.90
23089;DHT22;11713;48.506;8.966;2023-04-01T22:55:50;7.80;99.90
23089;DHT22;11713;48.506;8.966;2023-04-01T22:58:35;7.80;99.90
23089;DHT22;11713;48.506;8.966;2023-04-01T23:01:20;7.80;99.90
23089;DHT22;11713;48.506;8.966;2023-04-01T23:03:49;7.80;99.90
23089;DHT22;11713;48.506;8.966;2023-04-01T23:06:25;7.80;99.90
23089;DHT22;11713;48.506;8.966;2023-04-01T23:09:25;7.80;99.90
23089;DHT22;11713;48.506;8.966;2023-04-01T23:12:18;7.80;99.90
23089;DHT22;11713;48.506;8.966;2023-04-01T23:14:56;7.70;99.90
23089;DHT22;11713;48.506;8.966;2023-04-01T23:23:09;7.70;99.90
23089;DHT22;11713;48.506;8.966;2023-04-01T23:25:46;7.70;99.90
23089;DHT22;11713;48.506;8.966;2023-04-01T23:28:39;7.70;99.90
23089;DHT22;11713;48.506;8.966;2023-04-01T23:33:58;7.70;99.90
23089;DHT22;11713;48.506;8.966;2023-04-01T23:36:26;7.70;99.90
23089;DHT22;11713;48.506;8.966;2023-04-01T23:38:52;7.70;99.90
23089;DHT22;11713;48.506;8.966;2023-04-01T23:41:30;7.70;99.90
23089;DHT22;11713;48.506;8.966;2023-04-01T23:44:08;7.70;99.90
23089;DHT22;11713;48.506;8.966;2023-04-01T23:46:37;7.60;99.90
23089;DHT22;11713;48.506;8.966;2023-04-01T23:49:08;7.60;99.90
23089;DHT22;11713;48.506;8.966;2023-04-01T23:51:46;7.60;99.90
23089;DHT22;11713;48.506;8.966;2023-04-01T23:54:40;7.50;99.90
23089;DHT22;11713;48.506;8.966;2023-04-01T23:57:10;7.50;99.90
23089;DHT22;11713;48.506;8.966;2023-04-01T23:59:37;7.50;99.90
